Time;durP1;ratioP1;P1;durP2;ratioP2;P2;SDS_P1;SDS_P2;PMS_P1;PMS_P2;Temp;Humidity;BMP_temperature;BMP_pressure;BME280_temperature;BME280_humidity;BME280_pressure;Samples;Min_cycle;Max_cycle;Signal;HPM_P1;HPM_P2
2023/05/30 00:00:58;;;;;;;4.15;1.75;;;12.10;99.90;;;;;;5042591;28;20095;-74
2023/05/30 00:03:24;;;;;;;3.45;1.33;;;12.00;99.90;;;;;;5024644;28;20041;-73
2023/05/30 00:05:50;;;;;;;1.55;1.10;;;12.00;99.90;;;;;;5024895;28;20098;-74
2023/05/30 00:08:16;;;;;;;3.13;1.90;;;12.00;99.90;;;;;;5043003;28;20486;-74
2023/05/30 00:10:42;;;;;;;7.10;1.63;;;12.00;99.90;;;;;;5042530;28;20076;-74
2023/05/30 00:13:07;;;;;;;4.53;1.60;;;12.00;99.90;;;;;;5043581;28;20045;-73
2023/05/30 00:15:33;;;;;;;1.90;1.25;;;12.00;99.90;;;;;;5042854;28;20037;-73
2023/05/30 00:18:00;;;;;;;2.95;1.45;;;12.00;99.90;;;;;;5041885;28;21150;-74
2023/05/30 00:20:29;;;;;;;3.92;1.70;;;12.00;99.90;;;;;;5043244;28;20041;-74
2023/05/30 00:22:58;;;;;;;4.50;1.40;;;12.00;99.90;;;;;;5008877;28;20058;-75
2023/05/30 00:25:24;;;;;;;9.25;2.00;;;12.00;99.90;;;;;;5042380;28;20037;-74
2023/05/30 00:27:50;;;;;;;5.95;1.42;;;12.00;99.90;;;;;;5042581;28;20102;-73
2023/05/30 00:30:16;;;;;;;3.30;1.48;;;11.90;99.90;;;;;;5025291;28;20084;-73
2023/05/30 00:32:42;;;;;;;1.63;1.48;;;11.90;99.90;;;;;;5044244;28;20087;-73
2023/05/30 00:35:08;;;;;;;1.83;1.05;;;11.90;99.90;;;;;;5047308;28;20068;-74
2023/05/30 00:37:34;;;;;;;5.82;1.23;;;11.90;99.90;;;;;;5047100;28;20043;-74
2023/05/30 00:39:59;;;;;;;3.67;1.98;;;11.90;99.90;;;;;;5046299;28;20137;-74
2023/05/30 00:42:28;;;;;;;4.95;1.58;;;11.90;99.90;;;;;;5047188;28;20084;-74
2023/05/30 00:44:54;;;;;;;3.90;2.00;;;11.90;99.90;;;;;;5046111;28;20041;-74
2023/05/30 00:47:20;;;;;;;5.68;1.60;;;11.90;99.90;;;;;;5045701;28;20399;-75
2023/05/30 00:49:46;;;;;;;2.78;1.70;;;11.90;99.90;;;;;;5045595;28;20128;-73
2023/05/30 00:52:13;;;;;;;3.05;1.48;;;11.80;99.90;;;;;;5028971;28;20079;-75
2023/05/30 00:54:43;;;;;;;2.47;1.20;;;11.80;99.90;;;;;;5047009;28;20119;-74
2023/05/30 00:57:09;;;;;;;2.60;1.20;;;11.80;99.90;;;;;;5046583;28;20037;-74
2023/05/30 00:59:35;;;;;;;7.45;1.95;;;11.80;99.90;;;;;;5046863;28;20496;-75
2023/05/30 01:02:02;;;;;;;5.30;1.75;;;11.90;99.90;;;;;;5045221;28;20033;-74
2023/05/30 01:04:28;;;;;;;4.65;1.73;;;11.80;99.90;;;;;;5046968;28;20116;-73
2023/05/30 01:06:53;;;;;;;2.58;1.83;;;11.80;99.90;;;;;;5046170;28;20128;-73
2023/05/30 01:09:19;;;;;;;4.28;1.48;;;11.80;99.90;;;;;;5046333;28;20057;-75
2023/05/30 01:12:00;;;;;;;4.50;1.65;;;11.80;99.90;;;;;;5028096;28;20048;-74
2023/05/30 01:15:02;;;;;;;1.98;1.17;;;11.90;99.90;;;;;;5046402;28;20071;-73
2023/05/30 01:17:33;;;;;;;4.38;2.05;;;11.90;99.90;;;;;;5045380;28;20056;-73
2023/05/30 01:20:16;;;;;;;2.92;1.02;;;11.90;99.90;;;;;;5045878;28;20033;-74
2023/05/30 01:23:20;;;;;;;3.15;1.25;;;11.90;99.90;;;;;;5046058;28;20391;-73
2023/05/30 01:26:18;;;;;;;3.58;2.03;;;11.90;99.90;;;;;;5028168;28;20502;-74
2023/05/30 01:28:46;;;;;;;1.85;1.23;;;11.90;99.90;;;;;;5011390;28;20037;-73
2023/05/30 01:31:12;;;;;;;2.47;1.30;;;11.80;99.90;;;;;;5045012;28;20056;-74
2023/05/30 01:33:39;;;;;;;8.55;1.58;;;11.80;99.90;;;;;;5046450;28;20550;-74
2023/05/30 01:36:06;;;;;;;4.28;1.67;;;11.90;99.90;;;;;;5046007;28;20041;-73
2023/05/30 01:38:34;;;;;;;4.90;1.20;;;11.90;99.90;;;;;;5046151;28;20084;-74
2023/05/30 01:41:01;;;;;;;6.95;1.80;;;11.90;99.90;;;;;;5027311;28;20388;-73
2023/05/30 01:43:47;;;;;;;7.70;2.25;;;11.80;99.90;;;;;;5026327;28;20049;-74
2023/05/30 01:46:34;;;;;;;2.75;1.00;;;11.80;99.90;;;;;;5026565;28;20487;-75
2023/05/30 01:49:21;;;;;;;2.92;1.23;;;11.80;99.90;;;;;;5027961;28;20065;-74
2023/05/30 01:51:53;;;;;;;3.13;1.55;;;11.80;99.90;;;;;;5018231;28;20049;-75
2023/05/30 01:54:21;;;;;;;4.55;1.42;;;11.80;99.90;;;;;;5045808;28;20037;-74
2023/05/30 01:56:56;;;;;;;3.50;1.77;;;11.80;99.90;;;;;;5045421;28;20099;-75
2023/05/30 01:59:25;;;;;;;3.95;1.73;;;11.80;99.90;;;;;;5027825;28;20090;-73
2023/05/30 02:01:53;;;;;;;5.28;1.88;;;11.80;99.90;;;;;;5044290;28;20045;-75
2023/05/30 02:04:19;;;;;;;5.03;2.15;;;11.80;99.90;;;;;;5016712;28;20124;-74
2023/05/30 02:06:44;;;;;;;6.00;1.40;;;11.80;99.90;;;;;;5042502;28;20555;-74
2023/05/30 02:09:10;;;;;;;2.83;1.63;;;11.80;99.90;;;;;;5045238;28;20053;-76
2023/05/30 02:11:35;;;;;;;3.30;0.95;;;11.80;99.90;;;;;;5045510;28;20041;-75
2023/05/30 02:14:01;;;;;;;4.38;1.65;;;11.90;99.90;;;;;;5026804;28;20045;-74
2023/05/30 02:16:27;;;;;;;6.53;1.90;;;11.90;99.90;;;;;;5044420;28;20044;-73
2023/05/30 02:18:52;;;;;;;4.22;1.55;;;11.90;99.90;;;;;;5045069;28;20391;-75
2023/05/30 02:21:19;;;;;;;2.30;1.00;;;11.90;99.90;;;;;;5045295;28;20033;-74
2023/05/30 02:23:45;;;;;;;6.65;1.60;;;11.80;99.90;;;;;;5026665;28;20053;-74
2023/05/30 02:26:10;;;;;;;6.53;1.80;;;11.80;99.90;;;;;;5027396;28;20045;-74
2023/05/30 02:28:36;;;;;;;2.47;1.55;;;11.80;99.90;;;;;;5045172;28;20048;-74
2023/05/30 02:31:02;;;;;;;4.43;1.38;;;11.80;99.90;;;;;;5043776;28;20051;-75
2023/05/30 02:33:28;;;;;;;2.33;1.48;;;11.80;99.90;;;;;;5044219;28;20133;-75
2023/05/30 02:35:53;;;;;;;4.78;1.20;;;11.80;99.90;;;;;;5044936;28;20466;-74
2023/05/30 02:38:19;;;;;;;2.03;1.00;;;11.80;99.90;;;;;;5044871;28;20103;-73
2023/05/30 02:40:44;;;;;;;4.28;2.28;;;11.80;99.90;;;;;;5044288;28;20061;-76
2023/05/30 02:43:11;;;;;;;2.92;1.17;;;11.80;99.90;;;;;;5026744;28;20487;-75
2023/05/30 02:45:36;;;;;;;8.32;1.30;;;11.80;99.90;;;;;;5045204;28;20048;-74
2023/05/30 02:48:02;;;;;;;3.33;1.15;;;11.80;99.90;;;;;;4999706;28;20044;-73
2023/05/30 02:50:28;;;;;;;4.05;1.50;;;11.80;99.90;;;;;;5026517;28;20045;-75
2023/05/30 02:52:54;;;;;;;4.68;1.60;;;11.80;99.90;;;;;;5043837;28;20513;-75
2023/05/30 02:55:20;;;;;;;5.95;2.08;;;11.80;99.90;;;;;;5044198;28;20037;-74
2023/05/30 02:57:45;;;;;;;10.20;2.88;;;11.80;99.90;;;;;;5044661;28;20049;-73
2023/05/30 03:00:13;;;;;;;4.28;1.52;;;11.80;99.90;;;;;;5043772;28;20044;-74
2023/05/30 03:02:39;;;;;;;13.40;1.77;;;11.80;99.90;;;;;;5025581;28;20534;-75
2023/05/30 03:05:05;;;;;;;2.28;1.60;;;11.80;99.90;;;;;;5011098;28;20105;-74
2023/05/30 03:07:32;;;;;;;7.00;1.50;;;11.70;99.90;;;;;;5010391;28;20076;-74
2023/05/30 03:09:58;;;;;;;8.25;1.75;;;11.80;99.90;;;;;;5043675;28;20049;-74
2023/05/30 03:12:23;;;;;;;11.70;1.58;;;11.80;99.90;;;;;;5026280;28;20451;-74
2023/05/30 03:14:49;;;;;;;4.60;1.58;;;11.70;99.90;;;;;;5043654;28;20044;-74
2023/05/30 03:17:15;;;;;;;2.47;1.25;;;11.80;99.90;;;;;;5042598;28;20116;-75
2023/05/30 03:19:41;;;;;;;7.80;2.35;;;11.80;99.90;;;;;;5043796;28;20048;-74
2023/05/30 03:22:07;;;;;;;8.52;2.35;;;11.80;99.90;;;;;;5044385;28;20108;-75
2023/05/30 03:24:33;;;;;;;2.40;1.30;;;11.80;99.90;;;;;;5044258;28;20119;-74
2023/05/30 03:26:59;;;;;;;3.78;1.92;;;11.80;99.90;;;;;;5043757;28;20649;-73
2023/05/30 03:29:24;;;;;;;2.28;1.83;;;11.80;99.90;;;;;;5044354;28;20442;-74
2023/05/30 03:31:50;;;;;;;3.63;1.35;;;11.90;99.90;;;;;;5024066;28;20045;-74
2023/05/30 03:34:16;;;;;;;3.75;1.92;;;11.80;99.90;;;;;;5043791;28;20045;-74
2023/05/30 03:36:41;;;;;;;5.90;2.20;;;11.90;99.90;;;;;;5043583;28;20072;-74
2023/05/30 03:39:07;;;;;;;5.90;1.58;;;11.80;99.90;;;;;;5044145;28;20048;-74
2023/05/30 03:41:33;;;;;;;4.80;1.73;;;11.80;99.90;;;;;;5043556;28;20037;-74
2023/05/30 03:43:58;;;;;;;3.88;1.48;;;11.80;99.90;;;;;;5043386;28;20029;-75
2023/05/30 03:46:24;;;;;;;3.00;1.52;;;11.80;99.90;;;;;;5042347;28;20072;-74
2023/05/30 03:48:50;;;;;;;10.48;2.38;;;11.80;99.90;;;;;;5043399;28;20044;-75
2023/05/30 03:51:15;;;;;;;7.28;1.45;;;11.80;99.90;;;;;;5043121;28;20463;-74
2023/05/30 03:53:42;;;;;;;5.18;1.52;;;11.80;99.90;;;;;;5024832;28;20045;-74
2023/05/30 03:56:08;;;;;;;6.65;2.10;;;11.80;99.90;;;;;;5043832;28;20037;-75
2023/05/30 03:58:33;;;;;;;3.15;1.55;;;11.80;99.90;;;;;;5043538;28;20570;-73
2023/05/30 04:01:03;;;;;;;6.32;1.25;;;11.80;99.90;;;;;;5041607;28;20099;-74
2023/05/30 04:03:29;;;;;;;2.78;1.23;;;11.80;99.90;;;;;;5024653;28;20736;-74
2023/05/30 04:05:58;;;;;;;5.45;1.45;;;11.80;99.90;;;;;;5042652;28;20068;-73
2023/05/30 04:08:24;;;;;;;2.13;1.40;;;11.90;99.90;;;;;;5042732;28;20063;-75
2023/05/30 04:10:50;;;;;;;3.38;1.27;;;11.90;99.90;;;;;;5042780;28;20038;-75
2023/05/30 04:13:15;;;;;;;5.10;1.48;;;11.80;99.90;;;;;;5025688;28;20040;-74
2023/05/30 04:15:41;;;;;;;2.35;1.30;;;11.90;99.90;;;;;;5041652;28;20041;-74
2023/05/30 04:18:07;;;;;;;2.78;1.15;;;11.90;99.90;;;;;;5042983;28;20049;-75
2023/05/30 04:20:34;;;;;;;5.32;2.13;;;11.90;99.90;;;;;;5043125;28;20041;-75
2023/05/30 04:22:59;;;;;;;5.10;2.85;;;11.90;99.90;;;;;;5043190;28;20064;-74
2023/05/30 04:25:25;;;;;;;5.68;1.90;;;11.90;99.90;;;;;;5042870;28;20047;-75
2023/05/30 04:27:51;;;;;;;2.97;1.35;;;11.90;99.90;;;;;;5024733;28;20364;-75
2023/05/30 04:30:16;;;;;;;5.80;2.13;;;11.90;99.90;;;;;;5042556;28;20068;-75
2023/05/30 04:32:42;;;;;;;2.15;1.25;;;11.90;99.90;;;;;;5041050;28;20053;-75
2023/05/30 04:35:08;;;;;;;6.22;2.28;;;11.90;99.90;;;;;;5042152;28;20045;-74
2023/05/30 04:37:38;;;;;;;12.00;1.50;;;11.90;99.90;;;;;;5041580;28;20123;-74
2023/05/30 04:40:04;;;;;;;7.93;1.45;;;11.90;99.90;;;;;;5041524;28;20064;-74
2023/05/30 04:42:33;;;;;;;7.65;2.00;;;11.90;99.90;;;;;;5023582;28;20041;-74
2023/05/30 04:45:00;;;;;;;7.28;1.50;;;11.90;99.90;;;;;;5041616;28;20049;-75
2023/05/30 04:47:28;;;;;;;3.10;1.50;;;11.90;99.90;;;;;;5038774;28;20527;-74
2023/05/30 04:49:54;;;;;;;4.90;1.35;;;11.90;99.90;;;;;;5041487;28;20045;-74
2023/05/30 04:52:21;;;;;;;4.40;1.38;;;11.90;99.90;;;;;;5041253;28;20040;-75
2023/05/30 04:54:46;;;;;;;2.63;1.60;;;12.00;99.90;;;;;;5040948;28;20669;-74
2023/05/30 04:57:12;;;;;;;1.60;1.35;;;12.00;99.90;;;;;;5041068;28;20041;-74
2023/05/30 04:59:39;;;;;;;4.45;1.65;;;11.90;99.90;;;;;;5042407;28;20386;-74
2023/05/30 05:02:05;;;;;;;5.93;2.17;;;12.00;99.90;;;;;;5041098;28;20260;-74
2023/05/30 05:04:30;;;;;;;3.15;1.08;;;12.00;99.90;;;;;;5041237;28;20103;-77
2023/05/30 05:06:57;;;;;;;2.05;0.90;;;11.90;99.90;;;;;;5040207;28;20041;-73
2023/05/30 05:09:24;;;;;;;4.13;1.10;;;12.00;99.90;;;;;;5022284;28;20061;-74
2023/05/30 05:11:50;;;;;;;5.75;1.90;;;11.90;99.90;;;;;;5041983;28;20041;-74
2023/05/30 05:14:16;;;;;;;5.28;1.15;;;11.90;99.90;;;;;;5042086;28;20048;-74
2023/05/30 05:16:41;;;;;;;3.42;1.60;;;11.90;99.90;;;;;;5021871;28;20049;-74
2023/05/30 05:19:07;;;;;;;2.90;1.35;;;11.90;99.90;;;;;;5044922;28;20395;-74
2023/05/30 05:21:33;;;;;;;7.95;1.63;;;11.90;99.90;;;;;;5027535;28;20041;-74
2023/05/30 05:23:58;;;;;;;4.63;2.20;;;11.90;99.90;;;;;;5045379;28;20277;-75
2023/05/30 05:26:24;;;;;;;6.13;1.15;;;11.90;99.90;;;;;;5044135;28;20048;-74
2023/05/30 05:28:50;;;;;;;4.35;1.42;;;11.90;99.90;;;;;;5044863;28;20063;-75
2023/05/30 05:31:16;;;;;;;3.85;1.05;;;11.90;99.90;;;;;;5043446;28;20044;-75
2023/05/30 05:33:42;;;;;;;7.53;2.63;;;11.90;99.90;;;;;;5044486;28;20041;-75
2023/05/30 05:36:08;;;;;;;3.50;1.50;;;12.00;99.90;;;;;;5026536;28;20148;-75
2023/05/30 05:38:33;;;;;;;2.00;1.15;;;12.00;99.90;;;;;;5026430;28;20041;-75
2023/05/30 05:40:59;;;;;;;4.75;0.90;;;12.00;99.90;;;;;;5026250;28;20045;-75
2023/05/30 05:43:25;;;;;;;8.63;1.55;;;12.00;99.90;;;;;;5044845;28;20252;-74
2023/05/30 05:45:51;;;;;;;4.15;0.93;;;12.00;99.90;;;;;;5043458;28;20040;-75
2023/05/30 05:48:17;;;;;;;7.35;2.15;;;12.00;99.90;;;;;;5026017;28;20146;-75
2023/05/30 05:50:43;;;;;;;1.23;0.80;;;12.00;99.90;;;;;;5044495;28;20506;-75
2023/05/30 05:53:08;;;;;;;2.97;1.00;;;12.00;99.90;;;;;;5026965;28;20049;-74
2023/05/30 05:55:34;;;;;;;2.63;1.17;;;12.00;99.90;;;;;;5044451;28;20115;-74
2023/05/30 05:58:00;;;;;;;4.53;1.20;;;12.00;99.90;;;;;;5009416;28;20045;-73
2023/05/30 06:00:25;;;;;;;2.78;1.10;;;12.00;99.90;;;;;;5044103;28;20503;-72
2023/05/30 06:02:51;;;;;;;2.50;1.40;;;12.00;99.90;;;;;;5042182;28;20037;-73
2023/05/30 06:05:17;;;;;;;5.10;1.65;;;12.00;99.90;;;;;;5042923;28;20099;-72
2023/05/30 06:07:42;;;;;;;2.22;1.23;;;12.00;99.90;;;;;;5008999;28;20052;-71
2023/05/30 06:10:09;;;;;;;3.78;1.38;;;12.00;99.90;;;;;;5026299;28;20088;-73
2023/05/30 06:12:34;;;;;;;6.13;2.10;;;12.00;99.90;;;;;;5043461;28;20045;-73
2023/05/30 06:15:00;;;;;;;3.13;1.60;;;12.00;99.90;;;;;;5043813;28;20048;-73
2023/05/30 06:17:25;;;;;;;3.15;1.73;;;12.00;99.90;;;;;;5042707;28;20060;-74
2023/05/30 06:19:51;;;;;;;4.85;2.65;;;12.00;99.90;;;;;;5043806;28;20132;-75
2023/05/30 06:22:17;;;;;;;3.58;2.03;;;12.10;99.90;;;;;;5026123;28;20033;-74
2023/05/30 06:24:42;;;;;;;3.35;1.30;;;12.10;99.90;;;;;;5043181;28;20453;-75
2023/05/30 06:27:08;;;;;;;3.22;1.85;;;12.10;99.90;;;;;;5043351;28;20064;-74
2023/05/30 06:29:35;;;;;;;3.70;1.42;;;12.10;99.90;;;;;;5043461;28;20408;-74
2023/05/30 06:32:01;;;;;;;4.97;2.63;;;12.10;99.90;;;;;;5042593;28;20077;-74
2023/05/30 06:34:27;;;;;;;2.50;1.10;;;12.10;99.90;;;;;;5043665;28;20072;-75
2023/05/30 06:36:52;;;;;;;2.03;1.27;;;12.10;99.90;;;;;;5025437;28;20120;-75
2023/05/30 06:39:18;;;;;;;4.35;1.30;;;12.10;99.90;;;;;;5043420;28;20123;-74
2023/05/30 06:41:44;;;;;;;2.72;1.02;;;12.10;99.90;;;;;;5043448;28;20041;-74
2023/05/30 06:44:10;;;;;;;2.88;1.10;;;12.10;99.90;;;;;;5026037;28;20677;-75
2023/05/30 06:46:36;;;;;;;3.55;1.75;;;12.10;99.90;;;;;;5024325;28;20195;-75
2023/05/30 06:49:02;;;;;;;3.97;1.00;;;12.10;99.90;;;;;;5043427;28;20045;-75
2023/05/30 06:51:28;;;;;;;2.53;1.52;;;12.20;99.90;;;;;;5043747;28;20080;-75
2023/05/30 06:53:53;;;;;;;2.20;0.85;;;12.10;99.90;;;;;;5042587;28;20122;-74
2023/05/30 06:56:19;;;;;;;2.00;0.90;;;12.20;99.90;;;;;;5042788;28;20041;-74
2023/05/30 06:58:44;;;;;;;2.65;1.05;;;12.20;99.90;;;;;;5040679;28;20398;-73
2023/05/30 07:01:10;;;;;;;1.70;1.02;;;12.20;99.90;;;;;;5040396;28;20040;-73
2023/05/30 07:03:36;;;;;;;3.92;1.58;;;12.20;99.90;;;;;;5039071;28;20399;-73
2023/05/30 07:06:02;;;;;;;1.58;1.13;;;12.20;99.90;;;;;;5040367;28;20538;-73
2023/05/30 07:08:29;;;;;;;2.20;0.95;;;12.20;99.90;;;;;;5042107;28;20041;-74
2023/05/30 07:10:55;;;;;;;4.38;0.82;;;12.20;99.90;;;;;;5040642;28;20525;-74
2023/05/30 07:13:20;;;;;;;1.95;0.82;;;12.20;99.90;;;;;;5043051;28;20120;-74
2023/05/30 07:15:47;;;;;;;1.77;1.15;;;12.30;99.90;;;;;;5040586;28;20037;-74
2023/05/30 07:18:12;;;;;;;2.88;0.93;;;12.30;99.90;;;;;;5042700;28;20041;-74
2023/05/30 07:20:38;;;;;;;2.53;0.93;;;12.30;99.90;;;;;;5043036;28;20033;-73
2023/05/30 07:23:04;;;;;;;2.13;0.40;;;12.30;99.90;;;;;;5042294;28;20048;-73
2023/05/30 07:25:29;;;;;;;2.00;0.95;;;12.30;99.90;;;;;;5042616;28;20041;-74
2023/05/30 07:27:56;;;;;;;0.77;0.57;;;12.40;99.90;;;;;;5024923;28;20073;-74
2023/05/30 07:30:22;;;;;;;1.67;0.85;;;12.30;99.90;;;;;;5042060;28;20052;-74
2023/05/30 07:32:47;;;;;;;0.85;0.60;;;12.40;99.90;;;;;;5042290;28;20043;-74
2023/05/30 07:35:13;;;;;;;1.50;0.70;;;12.40;99.90;;;;;;5042482;28;20099;-74
2023/05/30 07:37:38;;;;;;;1.88;0.90;;;12.40;99.90;;;;;;5042643;28;20049;-74
2023/05/30 07:40:06;;;;;;;3.47;1.00;;;12.50;99.90;;;;;;5042193;28;20029;-75
2023/05/30 07:42:33;;;;;;;1.23;0.82;;;12.40;99.90;;;;;;5024047;28;20081;-74
2023/05/30 07:44:59;;;;;;;2.33;0.85;;;12.40;99.90;;;;;;5040953;28;20045;-75
2023/05/30 07:47:25;;;;;;;2.17;0.70;;;12.40;99.90;;;;;;5024736;28;20043;-74
2023/05/30 07:49:50;;;;;;;1.33;0.82;;;12.40;99.90;;;;;;5041203;28;20115;-74
2023/05/30 07:52:16;;;;;;;3.95;1.67;;;12.50;99.90;;;;;;5024122;28;20507;-74
2023/05/30 07:54:42;;;;;;;6.88;1.10;;;12.50;99.90;;;;;;5023835;28;20049;-74
2023/05/30 07:57:12;;;;;;;3.33;1.35;;;12.60;99.90;;;;;;5024824;28;20040;-74
2023/05/30 07:59:38;;;;;;;0.80;0.43;;;12.60;99.90;;;;;;5042341;28;20156;-74
2023/05/30 08:02:03;;;;;;;1.38;0.60;;;12.60;99.90;;;;;;5022691;28;20129;-74
2023/05/30 08:04:29;;;;;;;0.98;0.35;;;12.70;99.90;;;;;;5023966;28;20525;-74
2023/05/30 08:06:54;;;;;;;1.10;0.65;;;12.70;99.90;;;;;;5041340;28;20091;-74
2023/05/30 08:09:20;;;;;;;1.98;0.75;;;12.70;99.90;;;;;;5023790;28;20107;-74
2023/05/30 08:11:46;;;;;;;0.65;0.52;;;12.70;99.90;;;;;;5041679;28;20045;-74
2023/05/30 08:14:11;;;;;;;0.40;0.40;;;12.70;99.90;;;;;;5023981;28;20458;-74
2023/05/30 08:16:37;;;;;;;0.82;0.60;;;12.70;99.90;;;;;;5041255;28;20071;-74
2023/05/30 08:19:03;;;;;;;1.08;0.50;;;12.80;99.90;;;;;;5041352;28;20514;-74
2023/05/30 08:21:28;;;;;;;0.70;0.30;;;12.80;99.90;;;;;;5040990;28;20476;-74
2023/05/30 08:23:54;;;;;;;0.32;0.28;;;12.80;99.90;;;;;;5041297;28;20412;-74
2023/05/30 08:26:20;;;;;;;0.95;0.82;;;12.90;99.90;;;;;;5042089;28;20044;-74
2023/05/30 08:28:46;;;;;;;2.28;0.40;;;12.90;99.90;;;;;;5041152;28;20080;-74
2023/05/30 08:31:12;;;;;;;0.43;0.30;;;12.90;99.90;;;;;;5006153;28;20558;-75
2023/05/30 08:33:37;;;;;;;0.43;0.30;;;13.00;99.90;;;;;;5007474;28;20085;-74
2023/05/30 08:36:03;;;;;;;0.70;0.68;;;13.00;99.90;;;;;;5023650;28;20077;-74
2023/05/30 08:38:29;;;;;;;0.65;0.28;;;13.00;99.90;;;;;;5041649;28;20442;-73
2023/05/30 08:40:54;;;;;;;1.40;0.52;;;13.00;99.90;;;;;;5006998;28;20080;-74
2023/05/30 08:43:20;;;;;;;1.95;0.43;;;12.90;99.90;;;;;;5040857;28;20036;-74
2023/05/30 08:45:46;;;;;;;0.47;0.47;;;12.90;99.90;;;;;;5040236;28;20094;-74
2023/05/30 08:48:17;;;;;;;2.53;0.68;;;12.90;99.90;;;;;;5023691;28;20041;-74
2023/05/30 08:50:43;;;;;;;0.57;0.30;;;12.90;99.90;;;;;;5039586;28;20069;-75
2023/05/30 08:53:13;;;;;;;0.43;0.40;;;12.90;99.90;;;;;;5043237;28;20041;-74
2023/05/30 08:55:54;;;;;;;0.90;0.43;;;12.80;99.90;;;;;;5046024;28;20053;-74
2023/05/30 08:58:25;;;;;;;2.78;1.17;;;12.80;99.90;;;;;;5027608;28;20055;-74
2023/05/30 09:00:53;;;;;;;1.30;0.60;;;12.80;99.90;;;;;;5026655;28;20466;-74
2023/05/30 09:03:20;;;;;;;0.52;0.40;;;12.70;99.90;;;;;;5045121;28;20518;-74
2023/05/30 09:05:46;;;;;;;0.32;0.30;;;12.70;99.90;;;;;;5044716;28;20365;-75
2023/05/30 09:08:13;;;;;;;0.45;0.30;;;12.70;99.90;;;;;;5045479;28;20045;-75
2023/05/30 09:10:48;;;;;;;0.93;0.82;;;12.70;99.90;;;;;;5027116;28;20084;-74
2023/05/30 09:13:15;;;;;;;1.95;0.30;;;12.80;99.90;;;;;;5045071;28;20055;-74
2023/05/30 09:15:40;;;;;;;0.43;0.30;;;12.80;99.90;;;;;;5042471;28;20522;-75
2023/05/30 09:18:06;;;;;;;0.30;0.30;;;12.90;99.90;;;;;;5045154;28;20045;-74
2023/05/30 09:20:32;;;;;;;0.55;0.20;;;12.90;99.90;;;;;;5044706;28;20136;-74
2023/05/30 09:22:58;;;;;;;0.80;0.50;;;12.90;99.90;;;;;;5044555;28;20482;-74
2023/05/30 09:25:24;;;;;;;1.27;0.55;;;13.00;99.90;;;;;;5044550;28;20123;-75
2023/05/30 09:27:51;;;;;;;0.85;0.45;;;13.00;99.90;;;;;;5044321;28;20116;-74
2023/05/30 09:30:16;;;;;;;1.40;0.30;;;13.00;99.90;;;;;;5043649;28;20044;-74
2023/05/30 09:32:58;;;;;;;1.05;0.60;;;13.00;99.90;;;;;;5042775;28;20415;-74
2023/05/30 09:35:25;;;;;;;1.90;0.80;;;13.00;99.90;;;;;;5044962;28;20049;-74
2023/05/30 09:37:50;;;;;;;0.60;0.40;;;13.00;99.90;;;;;;5043947;28;20132;-75
2023/05/30 09:40:16;;;;;;;1.05;0.68;;;13.00;99.90;;;;;;5044289;28;20120;-74
2023/05/30 09:42:44;;;;;;;1.42;0.60;;;13.00;99.90;;;;;;5044274;28;20044;-74
2023/05/30 09:45:12;;;;;;;1.77;0.60;;;13.00;99.90;;;;;;5043120;28;20112;-75
2023/05/30 09:47:45;;;;;;;0.43;0.30;;;13.10;99.90;;;;;;5044786;28;20048;-74
2023/05/30 09:50:21;;;;;;;0.90;0.60;;;13.10;99.90;;;;;;5044288;28;20043;-74
2023/05/30 09:52:56;;;;;;;0.70;0.52;;;13.10;99.90;;;;;;5043849;28;20495;-74
2023/05/30 09:55:24;;;;;;;0.47;0.32;;;13.20;99.90;;;;;;5044113;28;20040;-74
2023/05/30 09:57:50;;;;;;;0.20;0.20;;;13.10;99.90;;;;;;5043649;28;20513;-74
2023/05/30 10:00:24;;;;;;;1.77;0.52;;;13.10;99.90;;;;;;5025438;28;20049;-75
2023/05/30 10:02:55;;;;;;;1.98;0.68;;;13.10;99.90;;;;;;5044046;28;20041;-74
2023/05/30 10:05:28;;;;;;;0.80;0.40;;;13.10;99.90;;;;;;5042978;28;20139;-74
2023/05/30 10:07:55;;;;;;;1.67;0.40;;;13.10;99.90;;;;;;5043295;28;20041;-74
2023/05/30 10:10:21;;;;;;;0.52;0.30;;;13.10;99.90;;;;;;5009220;28;20053;-74
2023/05/30 10:12:53;;;;;;;0.90;0.50;;;13.10;99.90;;;;;;5043750;28;20060;-74
2023/05/30 10:15:21;;;;;;;0.28;0.28;;;13.10;99.90;;;;;;5042956;28;20128;-75
2023/05/30 10:18:06;;;;;;;1.70;0.35;;;13.10;99.90;;;;;;5043045;28;20037;-74
2023/05/30 10:20:37;;;;;;;0.70;0.38;;;13.10;99.90;;;;;;5043936;28;20076;-74
2023/05/30 10:23:06;;;;;;;0.70;0.30;;;13.10;99.90;;;;;;5043332;28;20146;-74
2023/05/30 10:25:37;;;;;;;1.10;0.22;;;13.10;99.90;;;;;;5026060;28;20041;-74
2023/05/30 10:28:05;;;;;;;0.60;0.30;;;13.20;99.90;;;;;;5042957;28;20044;-74
2023/05/30 10:30:33;;;;;;;0.75;0.50;;;13.30;99.90;;;;;;5042813;28;20035;-74
2023/05/30 10:33:08;;;;;;;0.40;0.30;;;13.30;99.90;;;;;;5025395;28;20049;-74
2023/05/30 10:35:35;;;;;;;2.10;0.28;;;13.40;99.90;;;;;;5043662;28;20052;-74
2023/05/30 10:38:04;;;;;;;1.67;0.20;;;13.40;99.90;;;;;;5042991;28;20048;-74
2023/05/30 10:40:38;;;;;;;0.57;0.40;;;13.40;99.90;;;;;;5026336;28;20044;-76
2023/05/30 10:43:42;;;;;;;0.47;0.32;;;13.40;99.90;;;;;;5041132;28;20141;-73
2023/05/30 10:46:21;;;;;;;0.57;0.43;;;13.40;99.90;;;;;;5024066;28;20053;-75
2023/05/30 10:48:53;;;;;;;2.13;0.60;;;13.50;99.90;;;;;;5043827;28;20101;-75
2023/05/30 10:51:19;;;;;;;1.75;0.47;;;13.60;99.90;;;;;;5044054;28;20033;-75
2023/05/30 10:53:46;;;;;;;0.55;0.47;;;13.60;99.90;;;;;;5032333;28;20045;-75
2023/05/30 10:56:39;;;;;;;0.50;0.50;;;13.60;99.90;;;;;;5044135;28;20048;-75
2023/05/30 10:59:13;;;;;;;0.50;0.50;;;13.60;99.90;;;;;;5044265;28;20045;-75
2023/05/30 11:01:39;;;;;;;0.60;0.30;;;13.50;99.90;;;;;;5043556;28;20388;-75
2023/05/30 11:04:11;;;;;;;0.50;0.50;;;13.50;99.90;;;;;;5043377;28;20051;-75
2023/05/30 11:06:45;;;;;;;0.50;0.50;;;13.60;99.90;;;;;;5042951;28;20049;-75
2023/05/30 11:09:15;;;;;;;0.52;0.43;;;13.60;99.90;;;;;;5043170;28;20059;-75
2023/05/30 11:11:43;;;;;;;0.47;0.30;;;13.70;99.90;;;;;;5042929;28;20041;-75
2023/05/30 11:14:10;;;;;;;1.55;0.60;;;13.70;99.90;;;;;;5043192;28;20052;-75
2023/05/30 11:16:54;;;;;;;0.68;0.38;;;13.70;99.90;;;;;;5042390;28;20372;-75
2023/05/30 11:19:39;;;;;;;0.57;0.40;;;13.70;99.90;;;;;;5024813;28;20099;-75
2023/05/30 11:22:17;;;;;;;1.33;0.32;;;13.80;99.90;;;;;;5025659;28;20041;-75
2023/05/30 11:24:44;;;;;;;0.43;0.40;;;13.80;99.90;;;;;;5008320;28;20098;-75
2023/05/30 11:27:12;;;;;;;0.57;0.40;;;13.80;99.90;;;;;;5043097;28;20041;-75
2023/05/30 11:29:51;;;;;;;0.52;0.50;;;13.80;99.90;;;;;;5042470;28;20122;-75
2023/05/30 11:32:29;;;;;;;0.50;0.50;;;13.80;99.90;;;;;;5024792;28;20055;-75
2023/05/30 11:35:02;;;;;;;0.82;0.50;;;13.90;99.90;;;;;;5024638;28;20491;-75
2023/05/30 11:37:29;;;;;;;0.35;0.35;;;13.90;99.90;;;;;;5042623;28;20123;-75
2023/05/30 11:39:55;;;;;;;0.30;0.30;;;14.10;99.90;;;;;;5042197;28;20483;-75
2023/05/30 11:42:21;;;;;;;0.63;0.35;;;14.20;99.90;;;;;;5043498;28;20446;-75
2023/05/30 11:44:47;;;;;;;1.48;0.30;;;14.20;99.90;;;;;;5041930;28;20049;-75
2023/05/30 11:47:14;;;;;;;1.30;0.43;;;14.20;99.90;;;;;;5042244;28;20399;-75
2023/05/30 11:49:41;;;;;;;0.35;0.30;;;14.30;99.90;;;;;;5023878;28;20048;-75
2023/05/30 11:52:07;;;;;;;1.13;0.40;;;14.30;99.90;;;;;;5042678;28;20124;-75
2023/05/30 11:54:33;;;;;;;0.40;0.40;;;14.30;99.90;;;;;;5024150;28;20120;-75
2023/05/30 11:56:58;;;;;;;1.27;0.63;;;14.30;99.90;;;;;;5041604;28;20372;-75
2023/05/30 11:59:25;;;;;;;1.92;0.40;;;14.20;99.90;;;;;;5023327;28;20048;-75
2023/05/30 12:01:58;;;;;;;1.67;0.90;;;14.30;99.90;;;;;;5041369;28;20136;-75
2023/05/30 12:04:26;;;;;;;0.85;0.50;;;14.30;99.90;;;;;;5042106;28;20077;-75
2023/05/30 12:06:56;;;;;;;1.13;0.45;;;14.30;99.90;;;;;;5042467;28;20025;-75
2023/05/30 12:09:21;;;;;;;0.68;0.55;;;14.30;99.90;;;;;;5041612;28;20555;-75
2023/05/30 12:11:56;;;;;;;0.52;0.52;;;14.30;99.90;;;;;;5023552;28;20041;-75
2023/05/30 12:14:39;;;;;;;1.02;0.70;;;14.30;99.90;;;;;;5025836;28;20041;-75
2023/05/30 12:17:12;;;;;;;2.75;0.75;;;14.30;99.90;;;;;;5041581;28;20045;-75
2023/05/30 12:19:43;;;;;;;0.80;0.50;;;14.40;99.90;;;;;;5043117;28;20045;-75
2023/05/30 12:22:12;;;;;;;1.02;0.73;;;14.50;99.90;;;;;;5042345;28;20041;-75
2023/05/30 12:24:38;;;;;;;1.13;0.70;;;14.60;99.90;;;;;;5041807;28;20049;-75
2023/05/30 12:27:05;;;;;;;2.97;0.60;;;14.60;99.90;;;;;;5005925;28;20041;-75
2023/05/30 12:29:35;;;;;;;1.17;0.47;;;14.60;99.90;;;;;;5041608;28;20052;-75
2023/05/30 12:32:02;;;;;;;0.80;0.60;;;14.60;99.90;;;;;;5023166;28;20032;-75
2023/05/30 12:34:45;;;;;;;0.63;0.50;;;14.70;99.90;;;;;;5042047;28;20076;-75
2023/05/30 12:37:12;;;;;;;1.02;0.52;;;14.70;99.90;;;;;;5023814;28;20041;-75
2023/05/30 12:39:50;;;;;;;1.00;0.43;;;14.70;99.90;;;;;;5024268;28;20052;-75
2023/05/30 12:42:20;;;;;;;1.00;0.50;;;14.80;99.90;;;;;;5023922;28;20112;-75
2023/05/30 12:44:52;;;;;;;2.38;0.70;;;14.80;99.90;;;;;;5040491;28;20336;-75
2023/05/30 12:47:18;;;;;;;0.43;0.43;;;14.80;99.90;;;;;;5041401;28;20052;-75
2023/05/30 12:49:44;;;;;;;0.65;0.57;;;14.80;99.90;;;;;;5041759;28;20128;-75